Godman Army Airfield (FTK)

 

Airport Diagram
Current Weather/Forecast (VFR Conditions)
METAR KFTK 071356Z AUTO 21005KT 10SM CLR 11/06 A3010 RMK AO2 SLP196 T01110062
TAF TAF AMD KFTK 071150Z 0711/0817 24003KT 4800 BR FEW045 QNH3007INS BECMG 0717/0718 29010G15KT 9999 NSW BKN030 510043 QNH3000INS BECMG 0723/0724 30009KT 9000 -SHRA OVC025 510033 QNH2999INS BECMG 0802/0803 VRB06KT 9999 NSW FEW040 BKN055 BKN080 510043 QNH3002INS TX17/0719Z TN06/0808Z

Airport Information

All Charts
General
Chart Name View
AIRPORT DIAGRAM
TAKEOFF MINIMUMS

Arrivals
Chart Name Download
CHERI FOUR

Approaches
Chart Name Download
ILS OR LOC/DME RWY 18
RNAV (GPS) RWY 15
RNAV (GPS) RWY 18
RNAV (GPS) RWY 36
VOR/DME RWY 15
VOR/DME RWY 18
VOR/DME RWY 36


Airport Statistics
Departures Arrivals Local
All Collected Stats since June 2016: 25 27 0
2021 Stats: 0 2 0
May Stats: 0 0 0

Inbound Traffic (Arrivals) - 0

No inbound traffic.


Outbound Traffic (Departures) - 0

No outbound traffic.


Local Traffic (Pattern) - 0

No local traffic.